Time;durP1;ratioP1;P1;durP2;ratioP2;P2;SDS_P1;SDS_P2;PMS_P1;PMS_P2;Temp;Humidity;BMP_temperature;BMP_pressure;BME280_temperature;BME280_humidity;BME280_pressure;Samples;Min_cycle;Max_cycle;Signal;HPM_P1;HPM_P2
2021/01/22 00:02:07;;;;;;;0.30;0.30;;;11.10;99.90;;;;;;5010486;28;20260;-81
2021/01/22 00:04:33;;;;;;;0.30;0.30;;;11.20;99.90;;;;;;5009761;28;20280;-79
2021/01/22 00:06:58;;;;;;;0.10;0.10;;;11.20;99.90;;;;;;5009290;28;20725;-80
2021/01/22 00:09:24;;;;;;;0.30;0.30;;;11.20;99.90;;;;;;5011773;28;20248;-81
2021/01/22 00:11:49;;;;;;;0.23;0.20;;;11.30;99.90;;;;;;5011694;28;20214;-80
2021/01/22 00:14:15;;;;;;;0.07;0.07;;;11.30;99.90;;;;;;5014643;28;20213;-79
2021/01/22 00:16:41;;;;;;;0.10;0.10;;;11.30;99.90;;;;;;5015124;28;20203;-80
2021/01/22 00:19:07;;;;;;;0.17;0.10;;;11.40;99.90;;;;;;5016505;28;20580;-80
2021/01/22 00:21:32;;;;;;;0.10;0.10;;;11.40;99.90;;;;;;5016568;28;20242;-79
2021/01/22 00:23:58;;;;;;;0.00;0.00;;;11.40;99.90;;;;;;5014529;28;20186;-81
2021/01/22 00:26:24;;;;;;;0.10;0.10;;;11.40;99.90;;;;;;5015594;28;20179;-80
2021/01/22 00:28:49;;;;;;;0.20;0.20;;;11.40;99.90;;;;;;5013990;28;20300;-80
2021/01/22 00:31:15;;;;;;;0.03;0.03;;;11.40;99.90;;;;;;5012526;28;20189;-81
2021/01/22 00:33:40;;;;;;;0.10;0.10;;;11.40;99.90;;;;;;5011491;28;20188;-81
2021/01/22 00:36:06;;;;;;;0.20;0.20;;;11.40;99.90;;;;;;5013059;28;20222;-81
2021/01/22 00:38:32;;;;;;;0.43;0.20;;;11.40;99.90;;;;;;5013662;28;20226;-81
2021/01/22 00:40:58;;;;;;;0.30;0.23;;;11.40;99.90;;;;;;5012544;28;20610;-80
2021/01/22 00:43:23;;;;;;;0.30;0.30;;;11.40;99.90;;;;;;5013861;28;20222;-80
2021/01/22 00:45:49;;;;;;;0.10;0.10;;;11.40;99.90;;;;;;5013352;28;20219;-81
2021/01/22 00:48:14;;;;;;;0.10;0.10;;;11.40;99.90;;;;;;5012578;28;20216;-81
2021/01/22 00:50:40;;;;;;;0.23;0.23;;;11.50;99.90;;;;;;5012548;28;20670;-79
2021/01/22 00:53:06;;;;;;;0.10;0.10;;;11.50;99.90;;;;;;5012695;28;20230;-81
2021/01/22 00:55:31;;;;;;;0.20;0.20;;;11.50;99.90;;;;;;5012956;28;20219;-80
2021/01/22 00:57:57;;;;;;;0.03;0.03;;;11.50;99.90;;;;;;5014390;28;20276;-81
2021/01/22 01:00:23;;;;;;;0.23;0.23;;;11.50;99.90;;;;;;5010896;28;20201;-81
2021/01/22 01:02:48;;;;;;;0.10;0.10;;;11.50;99.90;;;;;;5012470;28;20270;-80
2021/01/22 01:05:14;;;;;;;1.30;0.17;;;11.50;99.90;;;;;;5012634;28;20273;-81
2021/01/22 01:07:40;;;;;;;0.53;0.53;;;11.50;99.90;;;;;;5012685;28;20251;-80
2021/01/22 01:10:07;;;;;;;0.37;0.27;;;11.60;99.90;;;;;;5011965;28;20618;-81
2021/01/22 01:12:32;;;;;;;0.10;0.10;;;11.50;99.90;;;;;;5013886;28;20281;-81
2021/01/22 01:14:58;;;;;;;0.00;0.00;;;11.50;99.90;;;;;;5013195;28;20297;-80
2021/01/22 01:17:24;;;;;;;0.10;0.10;;;11.50;99.90;;;;;;5013748;28;20198;-80
2021/01/22 01:19:49;;;;;;;0.73;0.30;;;11.50;99.90;;;;;;5012210;28;20577;-81
2021/01/22 01:22:15;;;;;;;0.10;0.10;;;11.50;99.90;;;;;;5010882;28;20195;-80
2021/01/22 01:24:40;;;;;;;0.10;0.10;;;11.40;99.90;;;;;;5012962;28;20243;-81
2021/01/22 01:27:06;;;;;;;0.20;0.20;;;11.40;99.90;;;;;;5012087;28;20578;-80
2021/01/22 01:29:32;;;;;;;0.10;0.10;;;11.40;99.90;;;;;;5013330;28;20700;-79
2021/01/22 01:31:57;;;;;;;0.10;0.10;;;11.40;99.90;;;;;;5013845;28;20194;-81
2021/01/22 01:34:23;;;;;;;0.37;0.27;;;11.40;99.90;;;;;;5011790;28;20709;-81
2021/01/22 01:36:48;;;;;;;0.20;0.20;;;11.40;99.90;;;;;;5011031;28;20205;-80
2021/01/22 01:39:14;;;;;;;0.10;0.10;;;11.40;99.90;;;;;;5011145;28;20269;-80
2021/01/22 01:41:39;;;;;;;3.83;0.27;;;11.30;99.90;;;;;;5012458;28;20199;-80
2021/01/22 01:44:06;;;;;;;0.10;0.10;;;11.30;99.90;;;;;;5011451;28;20211;-80
2021/01/22 01:46:32;;;;;;;0.10;0.10;;;11.30;99.90;;;;;;5013575;28;20181;-80
2021/01/22 01:48:58;;;;;;;0.10;0.10;;;11.20;99.90;;;;;;5013224;28;20276;-81
2021/01/22 01:51:23;;;;;;;0.30;0.30;;;11.20;99.90;;;;;;5012133;28;20192;-81
2021/01/22 01:53:49;;;;;;;0.30;0.30;;;11.10;99.90;;;;;;5012095;28;20180;-81
2021/01/22 01:56:15;;;;;;;0.00;0.00;;;11.10;99.90;;;;;;5011353;28;20214;-80
2021/01/22 01:58:41;;;;;;;0.10;0.10;;;11.10;99.90;;;;;;5011300;28;20210;-81
2021/01/22 02:01:12;;;;;;;0.30;0.30;;;11.20;99.90;;;;;;5011024;28;20184;-81
2021/01/22 02:03:37;;;;;;;0.30;0.30;;;11.10;99.90;;;;;;5012971;28;20610;-81
2021/01/22 02:06:04;;;;;;;0.03;0.03;;;11.10;99.90;;;;;;5011666;28;20222;-81
2021/01/22 02:08:31;;;;;;;0.20;0.20;;;11.10;99.90;;;;;;5012802;28;20355;-80
2021/01/22 02:11:01;;;;;;;0.10;0.10;;;11.00;99.90;;;;;;5010941;28;20194;-80
2021/01/22 02:13:28;;;;;;;0.10;0.10;;;11.00;99.90;;;;;;5011879;28;20185;-80
2021/01/22 02:15:55;;;;;;;1.30;0.40;;;11.00;99.90;;;;;;5003557;28;20212;-80
2021/01/22 02:18:21;;;;;;;0.10;0.10;;;11.00;99.90;;;;;;5005459;28;20670;-80
2021/01/22 02:20:58;;;;;;;0.10;0.10;;;11.00;99.90;;;;;;5010402;28;20188;-80
2021/01/22 02:23:25;;;;;;;0.00;0.00;;;11.00;99.90;;;;;;5012754;28;20198;-80
2021/01/22 02:25:56;;;;;;;0.00;0.00;;;11.00;99.90;;;;;;5011152;28;20187;-80
2021/01/22 02:28:22;;;;;;;0.17;0.17;;;11.00;99.90;;;;;;5011419;28;20624;-80
2021/01/22 02:30:49;;;;;;;0.23;0.17;;;11.00;99.90;;;;;;5010753;28;20198;-80
2021/01/22 02:33:16;;;;;;;0.17;0.17;;;10.90;99.90;;;;;;5010460;28;20191;-80
2021/01/22 02:35:42;;;;;;;0.00;0.00;;;10.90;99.90;;;;;;5008907;28;20221;-79
2021/01/22 02:38:09;;;;;;;0.20;0.20;;;10.90;99.90;;;;;;5009285;28;20208;-81
2021/01/22 02:40:37;;;;;;;0.20;0.20;;;10.90;99.90;;;;;;5011897;28;20547;-81
2021/01/22 02:43:03;;;;;;;0.10;0.10;;;10.90;99.90;;;;;;5010958;28;20662;-81
2021/01/22 02:45:30;;;;;;;2.10;0.20;;;10.80;99.90;;;;;;5010789;28;20188;-81
2021/01/22 02:47:57;;;;;;;0.10;0.10;;;10.90;99.90;;;;;;5009262;28;20187;-80
2021/01/22 02:50:33;;;;;;;0.10;0.10;;;10.80;99.90;;;;;;5009918;28;20212;-80
2021/01/22 02:53:03;;;;;;;0.37;0.37;;;10.80;99.90;;;;;;5011232;28;20456;-80
2021/01/22 02:55:30;;;;;;;0.27;0.27;;;10.80;99.90;;;;;;5010851;28;20233;-79
2021/01/22 02:58:24;;;;;;;0.30;0.30;;;10.80;99.90;;;;;;5009993;28;20238;-80
2021/01/22 03:00:54;;;;;;;0.13;0.13;;;10.80;99.90;;;;;;5010496;28;20293;-83
2021/01/22 03:03:41;;;;;;;0.10;0.10;;;10.80;99.90;;;;;;5013530;28;20190;-83
2021/01/22 03:06:13;;;;;;;0.10;0.10;;;10.80;99.90;;;;;;5013249;28;20197;-82
2021/01/22 03:08:40;;;;;;;0.47;0.33;;;10.80;99.90;;;;;;5007053;28;20705;-83
2021/01/22 03:11:07;;;;;;;0.20;0.20;;;10.80;99.90;;;;;;5011504;28;20192;-83
2021/01/22 03:13:33;;;;;;;0.10;0.10;;;10.80;99.90;;;;;;5012265;28;20718;-83
2021/01/22 03:16:00;;;;;;;0.43;0.30;;;10.80;99.90;;;;;;5011614;28;20210;-83
2021/01/22 03:18:59;;;;;;;0.10;0.10;;;10.80;99.90;;;;;;5011695;28;20284;-83
2021/01/22 03:21:25;;;;;;;0.20;0.20;;;10.80;99.90;;;;;;5003760;28;20170;-83
2021/01/22 03:23:51;;;;;;;0.10;0.10;;;10.70;99.90;;;;;;5012807;28;20188;-83
2021/01/22 03:26:17;;;;;;;0.10;0.10;;;10.80;99.90;;;;;;5011691;28;20186;-82
2021/01/22 03:28:42;;;;;;;0.10;0.10;;;10.80;99.90;;;;;;5011459;28;20209;-83
2021/01/22 03:31:08;;;;;;;0.67;0.20;;;10.70;99.90;;;;;;5010976;28;20186;-83
2021/01/22 03:33:33;;;;;;;0.10;0.10;;;10.70;99.90;;;;;;5012946;28;20218;-83
2021/01/22 03:35:59;;;;;;;0.47;0.33;;;10.80;99.90;;;;;;5011753;28;20285;-83
2021/01/22 03:38:24;;;;;;;0.13;0.13;;;10.80;99.90;;;;;;5011308;28;20313;-82
2021/01/22 03:40:50;;;;;;;0.67;0.50;;;10.80;99.90;;;;;;5012283;28;20221;-83
2021/01/22 03:43:15;;;;;;;0.10;0.10;;;10.70;99.90;;;;;;5012647;28;20186;-83
2021/01/22 03:46:15;;;;;;;0.87;0.40;;;10.80;99.90;;;;;;5019174;28;20186;-82
2021/01/22 03:48:41;;;;;;;0.20;0.20;;;10.80;99.90;;;;;;5008236;28;20969;-83
2021/01/22 03:51:06;;;;;;;0.10;0.10;;;10.80;99.90;;;;;;5017368;28;20188;-83
2021/01/22 03:53:32;;;;;;;3.90;0.33;;;10.80;99.90;;;;;;5017570;28;20214;-83
2021/01/22 03:55:58;;;;;;;0.23;0.23;;;10.80;99.90;;;;;;5019085;28;20560;-82
2021/01/22 03:58:23;;;;;;;1.50;0.20;;;10.80;99.90;;;;;;5013365;28;20629;-84
2021/01/22 04:00:49;;;;;;;0.10;0.10;;;10.80;99.90;;;;;;5018378;28;20189;-83
2021/01/22 04:03:14;;;;;;;0.00;0.00;;;10.90;99.90;;;;;;5018012;28;20182;-83
2021/01/22 04:05:40;;;;;;;0.10;0.10;;;10.80;99.90;;;;;;5017229;28;20185;-83
2021/01/22 04:08:06;;;;;;;0.17;0.17;;;10.80;99.90;;;;;;5018779;28;20209;-82
2021/01/22 04:10:32;;;;;;;0.10;0.10;;;10.80;99.90;;;;;;5018422;28;20182;-82
2021/01/22 04:12:57;;;;;;;0.17;0.17;;;10.80;99.90;;;;;;5017549;28;20185;-83
2021/01/22 04:15:23;;;;;;;0.10;0.10;;;10.80;99.90;;;;;;5017652;28;20241;-83
2021/01/22 04:17:48;;;;;;;0.10;0.10;;;10.80;99.90;;;;;;5017663;28;20214;-83
2021/01/22 04:20:20;;;;;;;0.10;0.10;;;10.80;99.90;;;;;;5016996;28;20256;-83
2021/01/22 04:22:47;;;;;;;0.23;0.23;;;10.80;99.90;;;;;;5018829;28;20185;-83
2021/01/22 04:25:13;;;;;;;0.10;0.10;;;10.80;99.90;;;;;;5018731;28;20193;-85
2021/01/22 04:27:38;;;;;;;0.10;0.10;;;10.80;99.90;;;;;;5018315;28;20735;-85
2021/01/22 04:30:04;;;;;;;0.10;0.10;;;10.80;99.90;;;;;;5016633;28;20699;-82
2021/01/22 04:32:30;;;;;;;0.43;0.40;;;10.80;99.90;;;;;;5019176;28;20706;-83
2021/01/22 04:34:55;;;;;;;0.10;0.10;;;10.80;99.90;;;;;;5017570;28;20207;-83
2021/01/22 04:37:21;;;;;;;0.10;0.10;;;10.70;99.90;;;;;;5017716;28;20237;-82
2021/01/22 04:39:47;;;;;;;0.50;0.50;;;10.70;99.90;;;;;;5008686;28;20281;-83
2021/01/22 04:42:12;;;;;;;0.20;0.20;;;10.70;99.90;;;;;;5017262;28;20252;-84
2021/01/22 04:44:40;;;;;;;0.50;0.20;;;10.70;99.90;;;;;;5013122;28;20888;-83
2021/01/22 04:47:08;;;;;;;0.30;0.30;;;10.70;99.90;;;;;;5020047;28;20197;-83
2021/01/22 04:49:35;;;;;;;0.10;0.10;;;10.60;99.90;;;;;;5016378;28;20214;-83
2021/01/22 04:52:02;;;;;;;0.10;0.10;;;10.60;99.90;;;;;;5006983;28;20257;-84
2021/01/22 04:54:36;;;;;;;0.10;0.10;;;10.60;99.90;;;;;;5025105;28;20211;-83
2021/01/22 04:57:05;;;;;;;0.10;0.10;;;10.60;99.90;;;;;;5000706;28;20198;-82
2021/01/22 04:59:41;;;;;;;2.03;0.20;;;10.60;99.90;;;;;;5013689;28;20214;-84
2021/01/22 05:02:08;;;;;;;0.10;0.10;;;10.60;99.90;;;;;;5015045;28;20221;-83
2021/01/22 05:04:34;;;;;;;0.20;0.20;;;10.60;99.90;;;;;;5007188;28;20198;-83
2021/01/22 05:07:00;;;;;;;0.10;0.10;;;10.60;99.90;;;;;;5014301;28;20323;-85
2021/01/22 05:09:25;;;;;;;0.10;0.10;;;10.60;99.90;;;;;;5014900;28;20217;-83
2021/01/22 05:11:54;;;;;;;0.20;0.20;;;10.60;99.90;;;;;;5014146;28;20201;-83
2021/01/22 05:14:20;;;;;;;0.20;0.20;;;10.60;99.90;;;;;;5012510;28;20535;-82
2021/01/22 05:17:24;;;;;;;0.10;0.10;;;10.60;99.90;;;;;;5009930;28;20186;-83
2021/01/22 05:20:05;;;;;;;0.10;0.10;;;10.60;99.90;;;;;;5005954;28;20216;-83
2021/01/22 05:22:31;;;;;;;0.10;0.10;;;10.60;99.90;;;;;;5007456;28;20231;-83
2021/01/22 05:25:00;;;;;;;0.10;0.10;;;10.60;99.90;;;;;;5012899;28;20670;-84
2021/01/22 05:27:26;;;;;;;0.10;0.10;;;10.60;99.90;;;;;;5013386;28;20195;-85
2021/01/22 05:30:04;;;;;;;0.20;0.20;;;10.60;99.90;;;;;;5008166;28;20228;-83
2021/01/22 05:32:38;;;;;;;0.10;0.10;;;10.60;99.90;;;;;;5015121;28;20195;-83
2021/01/22 05:35:04;;;;;;;0.10;0.10;;;10.60;99.90;;;;;;5012803;28;20353;-83
2021/01/22 05:37:49;;;;;;;0.10;0.10;;;10.60;99.90;;;;;;5009268;28;20195;-83
2021/01/22 05:40:16;;;;;;;0.10;0.10;;;10.50;99.90;;;;;;5009984;28;20588;-84
2021/01/22 05:43:00;;;;;;;0.40;0.40;;;10.50;99.90;;;;;;5028698;28;20650;-84
2021/01/22 05:45:40;;;;;;;0.10;0.10;;;10.50;99.90;;;;;;5027552;28;20192;-83
2021/01/22 05:48:22;;;;;;;0.10;0.10;;;10.50;99.90;;;;;;5011644;28;20287;-85
2021/01/22 05:50:52;;;;;;;0.10;0.10;;;10.50;99.90;;;;;;5012807;28;20611;-85
2021/01/22 05:53:19;;;;;;;0.10;0.10;;;10.40;99.90;;;;;;5008292;28;20218;-86
2021/01/22 05:55:45;;;;;;;0.10;0.10;;;10.40;99.90;;;;;;5012252;28;20213;-82
2021/01/22 05:58:27;;;;;;;0.23;0.23;;;10.30;99.90;;;;;;5013891;28;20210;-84
2021/01/22 06:01:28;;;;;;;0.13;0.13;;;10.40;99.90;;;;;;5007341;28;20558;-82
2021/01/22 06:04:07;;;;;;;0.10;0.10;;;10.30;99.90;;;;;;4999118;28;20701;-83
2021/01/22 06:06:33;;;;;;;0.30;0.30;;;10.30;99.90;;;;;;5012084;28;20198;-82
2021/01/22 06:08:59;;;;;;;0.10;0.10;;;10.20;99.90;;;;;;5012445;28;20697;-82
2021/01/22 06:11:29;;;;;;;0.10;0.10;;;9.90;99.90;;;;;;5012782;28;20647;-86
2021/01/22 06:13:57;;;;;;;0.10;0.10;;;9.30;99.90;;;;;;5012122;28;20192;-86
2021/01/22 06:16:27;;;;;;;0.00;0.00;;;8.50;99.90;;;;;;5011950;28;20228;-86
2021/01/22 06:19:01;;;;;;;0.10;0.10;;;8.00;99.90;;;;;;5013129;28;20648;-85
2021/01/22 06:21:43;;;;;;;0.10;0.10;;;6.70;99.90;;;;;;5010644;28;20190;-83
2021/01/22 06:24:08;;;;;;;0.00;0.00;;;6.30;99.90;;;;;;5009268;28;20190;-83
2021/01/22 06:26:38;;;;;;;0.00;0.00;;;5.80;99.90;;;;;;5011779;28;20195;-83
2021/01/22 06:29:07;;;;;;;0.00;0.00;;;5.80;99.90;;;;;;5012149;28;20218;-81
2021/01/22 06:31:33;;;;;;;0.07;0.07;;;5.90;99.90;;;;;;5012588;28;20191;-83
2021/01/22 06:34:05;;;;;;;0.00;0.00;;;5.60;99.90;;;;;;5011686;28;20560;-83
2021/01/22 06:36:32;;;;;;;0.10;0.10;;;5.70;99.90;;;;;;5003382;28;20211;-82
2021/01/22 06:39:00;;;;;;;0.00;0.00;;;5.60;99.90;;;;;;5012237;28;20216;-83
2021/01/22 06:41:27;;;;;;;0.00;0.00;;;5.50;99.90;;;;;;5011523;28;20182;-83
2021/01/22 06:43:56;;;;;;;0.10;0.10;;;5.40;99.90;;;;;;5015166;28;20180;-83
2021/01/22 06:46:26;;;;;;;0.00;0.00;;;5.40;99.90;;;;;;5007822;28;20187;-84
2021/01/22 06:48:55;;;;;;;0.00;0.00;;;5.30;99.90;;;;;;5005395;28;20222;-82
2021/01/22 06:51:26;;;;;;;0.03;0.03;;;5.30;99.90;;;;;;5007711;28;20618;-82
2021/01/22 06:54:16;;;;;;;0.00;0.00;;;5.30;99.90;;;;;;5028344;28;20199;-84
2021/01/22 06:56:50;;;;;;;0.10;0.10;;;5.30;99.90;;;;;;5010479;28;20196;-85
2021/01/22 06:59:19;;;;;;;0.00;0.00;;;5.30;99.90;;;;;;5004099;28;20617;-83
2021/01/22 07:01:54;;;;;;;0.03;0.03;;;5.20;99.90;;;;;;5010513;28;20202;-83
2021/01/22 07:04:28;;;;;;;0.10;0.10;;;5.30;99.90;;;;;;5011571;28;20180;-82
2021/01/22 07:06:55;;;;;;;0.10;0.10;;;5.10;99.90;;;;;;5008093;28;20181;-83
2021/01/22 07:09:22;;;;;;;0.10;0.10;;;5.10;99.90;;;;;;5011033;28;20200;-85
2021/01/22 07:11:57;;;;;;;0.00;0.00;;;4.70;99.90;;;;;;5003869;28;20249;-84
2021/01/22 07:14:41;;;;;;;0.00;0.00;;;4.70;99.90;;;;;;5011482;28;20222;-85
2021/01/22 07:17:14;;;;;;;0.10;0.10;;;4.80;99.90;;;;;;5010173;28;20605;-85
2021/01/22 07:19:47;;;;;;;0.10;0.10;;;4.80;99.90;;;;;;5008085;28;20224;-85
2021/01/22 07:22:16;;;;;;;0.00;0.00;;;4.60;99.90;;;;;;5011779;28;20280;-85
2021/01/22 07:24:52;;;;;;;0.03;0.03;;;4.60;99.90;;;;;;5010416;28;20189;-84
2021/01/22 07:27:17;;;;;;;0.10;0.10;;;4.70;99.90;;;;;;5004832;28;20180;-85
2021/01/22 07:30:16;;;;;;;0.10;0.10;;;4.80;99.90;;;;;;5002904;28;20205;-83
2021/01/22 07:32:43;;;;;;;0.00;0.00;;;4.80;99.90;;;;;;5012868;28;20189;-85
2021/01/22 07:35:20;;;;;;;0.10;0.10;;;4.90;99.90;;;;;;5008374;28;20257;-86
2021/01/22 07:37:47;;;;;;;0.10;0.10;;;5.10;99.90;;;;;;5006453;28;20548;-85
2021/01/22 07:40:12;;;;;;;0.07;0.07;;;5.10;99.90;;;;;;5006990;28;20344;-83
2021/01/22 07:42:39;;;;;;;0.00;0.00;;;5.10;99.90;;;;;;5012071;28;20274;-85
2021/01/22 07:45:21;;;;;;;0.10;0.10;;;5.20;99.90;;;;;;5012065;28;20241;-86
2021/01/22 07:47:48;;;;;;;0.00;0.00;;;5.20;99.90;;;;;;5009902;28;20278;-85
2021/01/22 07:50:21;;;;;;;0.00;0.00;;;5.00;99.90;;;;;;5009013;28;20301;-82
2021/01/22 07:52:48;;;;;;;0.00;0.00;;;5.10;99.90;;;;;;5010800;28;20196;-86
2021/01/22 07:55:18;;;;;;;0.30;0.30;;;5.00;99.90;;;;;;5009872;28;20268;-85
2021/01/22 07:57:45;;;;;;;0.10;0.10;;;4.70;99.90;;;;;;5011642;28;20193;-82
2021/01/22 08:00:13;;;;;;;0.10;0.10;;;4.90;99.90;;;;;;5009747;28;20707;-82
2021/01/22 08:02:39;;;;;;;0.00;0.00;;;5.00;99.90;;;;;;5012158;28;20180;-85
2021/01/22 08:05:09;;;;;;;0.07;0.07;;;5.00;99.90;;;;;;5013219;28;20194;-84
2021/01/22 08:07:36;;;;;;;0.07;0.07;;;5.00;99.90;;;;;;5003762;28;20650;-89
2021/01/22 08:10:10;;;;;;;0.00;0.00;;;5.10;99.90;;;;;;5009740;28;20299;-87
2021/01/22 08:12:37;;;;;;;0.00;0.00;;;5.20;99.90;;;;;;5010601;28;20198;-86
2021/01/22 08:15:18;;;;;;;0.00;0.00;;;5.20;99.90;;;;;;5010605;28;20220;-85
2021/01/22 08:17:46;;;;;;;0.20;0.20;;;5.20;99.90;;;;;;4996282;28;20184;-85
2021/01/22 08:20:12;;;;;;;0.00;0.00;;;5.20;99.90;;;;;;5011110;28;20624;-82
2021/01/22 08:22:55;;;;;;;0.10;0.10;;;5.10;99.90;;;;;;5003023;28;20261;-83
2021/01/22 08:25:47;;;;;;;0.10;0.10;;;5.30;99.90;;;;;;5010283;28;20193;-83
2021/01/22 08:28:13;;;;;;;0.00;0.00;;;5.30;99.90;;;;;;4995541;28;20218;-84
2021/01/22 08:30:40;;;;;;;0.07;0.07;;;5.40;99.90;;;;;;5013773;28;20194;-85
2021/01/22 08:33:12;;;;;;;0.00;0.00;;;5.30;99.90;;;;;;5013973;28;20568;-86
2021/01/22 08:39:14;;;;;;;0.00;0.00;;;5.40;99.90;;;;;;5008523;28;20244;-86
2021/01/22 08:41:40;;;;;;;0.20;0.20;;;5.50;99.90;;;;;;5011807;28;20317;-85
2021/01/22 08:44:09;;;;;;;0.10;0.10;;;5.50;99.90;;;;;;5012926;28;20272;-86
2021/01/22 08:46:45;;;;;;;0.30;0.30;;;5.50;99.90;;;;;;5014335;28;20305;-83
2021/01/22 08:49:15;;;;;;;0.10;0.10;;;5.60;99.90;;;;;;5015930;28;20203;-83
2021/01/22 08:51:41;;;;;;;0.10;0.10;;;5.60;99.90;;;;;;5006665;28;20206;-82
2021/01/22 08:54:13;;;;;;;0.20;0.20;;;5.70;99.90;;;;;;5016043;28;20193;-83
2021/01/22 08:56:39;;;;;;;0.10;0.10;;;5.50;99.90;;;;;;5014352;28;20213;-82
2021/01/22 08:59:14;;;;;;;0.00;0.00;;;5.40;99.90;;;;;;5012858;28;20209;-84
2021/01/22 09:01:58;;;;;;;0.00;0.00;;;5.40;99.90;;;;;;5010289;28;20196;-86
2021/01/22 09:04:30;;;;;;;0.10;0.10;;;5.60;99.90;;;;;;5000455;28;20182;-85
2021/01/22 09:07:14;;;;;;;0.00;0.00;;;5.30;99.90;;;;;;5013462;28;20194;-83
2021/01/22 09:09:42;;;;;;;0.00;0.00;;;5.40;99.90;;;;;;5012771;28;20216;-85
2021/01/22 09:12:34;;;;;;;0.00;0.00;;;5.50;99.90;;;;;;5014500;28;20240;-83
2021/01/22 09:15:04;;;;;;;0.10;0.10;;;5.70;99.90;;;;;;5013301;28;20759;-83
2021/01/22 09:17:40;;;;;;;0.40;0.40;;;5.60;99.90;;;;;;5015323;28;20258;-83
2021/01/22 09:20:14;;;;;;;0.10;0.10;;;5.70;99.90;;;;;;5030529;28;20237;-85
2021/01/22 09:22:41;;;;;;;0.00;0.00;;;5.90;99.90;;;;;;5016281;28;20766;-83
2021/01/22 09:25:10;;;;;;;0.00;0.00;;;5.80;99.90;;;;;;5014958;28;20192;-83
2021/01/22 09:27:37;;;;;;;0.03;0.03;;;5.90;99.90;;;;;;5014228;28;20272;-83
2021/01/22 09:30:06;;;;;;;0.00;0.00;;;5.80;99.90;;;;;;5013384;28;20273;-84
2021/01/22 09:32:31;;;;;;;0.10;0.10;;;5.80;99.90;;;;;;5014481;28;20187;-84
2021/01/22 09:35:02;;;;;;;0.10;0.10;;;5.90;99.90;;;;;;5013634;28;20284;-84
2021/01/22 09:37:28;;;;;;;0.00;0.00;;;5.70;99.90;;;;;;5015190;28;20551;-85
2021/01/22 09:39:54;;;;;;;0.10;0.10;;;5.70;99.90;;;;;;5014119;28;20224;-83
2021/01/22 09:42:19;;;;;;;0.00;0.00;;;5.60;99.90;;;;;;5012990;28;20206;-83
2021/01/22 09:44:45;;;;;;;0.00;0.00;;;5.70;99.90;;;;;;5016708;28;20186;-84
2021/01/22 09:47:11;;;;;;;0.20;0.20;;;5.90;99.90;;;;;;5014080;28;20225;-84
2021/01/22 09:49:36;;;;;;;0.00;0.00;;;5.90;99.90;;;;;;5013006;28;20229;-85
2021/01/22 09:52:02;;;;;;;0.10;0.10;;;6.00;99.90;;;;;;5017884;28;20183;-83
2021/01/22 09:54:28;;;;;;;0.10;0.10;;;6.10;99.90;;;;;;5020039;28;20554;-82
2021/01/22 09:56:53;;;;;;;0.43;0.43;;;6.20;99.90;;;;;;5013074;28;20197;-83
2021/01/22 09:59:19;;;;;;;0.00;0.00;;;6.20;99.90;;;;;;5012874;28;22073;-83
2021/01/22 10:02:41;;;;;;;0.00;0.00;;;6.30;99.90;;;;;;5029687;28;20179;-83
2021/01/22 10:05:07;;;;;;;0.10;0.10;;;6.30;99.90;;;;;;5002472;28;20254;-83
2021/01/22 10:07:33;;;;;;;0.00;0.00;;;6.30;99.90;;;;;;5010697;28;20194;-83
2021/01/22 10:09:59;;;;;;;0.00;0.00;;;6.10;99.90;;;;;;5012983;28;20233;-83
2021/01/22 10:12:25;;;;;;;0.00;0.00;;;6.20;99.90;;;;;;5008530;28;20223;-84
2021/01/22 10:14:50;;;;;;;0.20;0.20;;;6.30;99.90;;;;;;5002886;28;20244;-82
2021/01/22 10:17:16;;;;;;;0.10;0.10;;;6.40;99.90;;;;;;5012522;28;20183;-83
2021/01/22 10:19:42;;;;;;;0.03;0.03;;;6.50;99.90;;;;;;5012275;28;20256;-82
2021/01/22 10:22:08;;;;;;;0.10;0.10;;;6.60;99.90;;;;;;5013270;28;20187;-84
2021/01/22 10:24:33;;;;;;;0.00;0.00;;;6.70;99.90;;;;;;5012549;28;20716;-83
2021/01/22 10:26:59;;;;;;;0.00;0.00;;;6.70;99.90;;;;;;5013848;28;20764;-82
2021/01/22 10:29:25;;;;;;;0.30;0.10;;;6.80;99.90;;;;;;5012611;28;20342;-81
2021/01/22 10:31:50;;;;;;;2.47;0.20;;;6.80;99.90;;;;;;5013098;28;20802;-83
2021/01/22 10:34:25;;;;;;;0.20;0.20;;;6.90;99.90;;;;;;5008029;28;20271;-83
2021/01/22 10:36:51;;;;;;;0.10;0.10;;;6.90;99.90;;;;;;5012364;28;20197;-84
2021/01/22 10:39:16;;;;;;;0.00;0.00;;;6.90;99.90;;;;;;5009811;28;20207;-84
2021/01/22 10:41:42;;;;;;;0.10;0.10;;;6.90;99.90;;;;;;5003792;28;20726;-84
2021/01/22 10:44:08;;;;;;;0.10;0.10;;;7.00;99.90;;;;;;5002277;28;20290;-83
2021/01/22 10:46:33;;;;;;;0.10;0.10;;;7.00;99.90;;;;;;5007714;28;20274;-85
2021/01/22 10:49:00;;;;;;;0.10;0.10;;;7.10;99.90;;;;;;5013127;28;20643;-86
2021/01/22 10:51:26;;;;;;;0.00;0.00;;;7.10;99.90;;;;;;5011477;28;20238;-83
2021/01/22 10:53:59;;;;;;;0.10;0.10;;;7.10;99.90;;;;;;5011830;28;20183;-84
2021/01/22 10:56:25;;;;;;;0.10;0.10;;;7.20;99.90;;;;;;5004885;28;20211;-84
2021/01/22 10:58:50;;;;;;;0.10;0.10;;;7.20;99.90;;;;;;5011315;28;20656;-84
2021/01/22 11:01:16;;;;;;;0.00;0.00;;;7.10;99.90;;;;;;5011438;28;20226;-84
2021/01/22 11:03:41;;;;;;;0.03;0.03;;;7.10;99.90;;;;;;5029153;28;20651;-85
2021/01/22 11:06:07;;;;;;;0.17;0.10;;;7.10;99.90;;;;;;5012653;28;20187;-82
2021/01/22 11:08:33;;;;;;;0.60;0.20;;;7.20;99.90;;;;;;5012898;28;20675;-82
2021/01/22 11:11:00;;;;;;;0.10;0.10;;;7.20;99.90;;;;;;5011991;28;20190;-81
2021/01/22 11:13:25;;;;;;;0.80;0.43;;;7.20;99.90;;;;;;5025788;28;20190;-84
2021/01/22 11:15:51;;;;;;;0.10;0.10;;;7.20;99.90;;;;;;5013000;28;20214;-83
2021/01/22 11:18:17;;;;;;;0.10;0.10;;;7.20;99.90;;;;;;5011893;28;20340;-83
2021/01/22 11:20:43;;;;;;;0.00;0.00;;;7.20;99.90;;;;;;5014507;28;20194;-82
2021/01/22 11:23:08;;;;;;;0.00;0.00;;;7.20;99.90;;;;;;5012821;28;20187;-83
2021/01/22 11:25:34;;;;;;;0.00;0.00;;;7.10;99.90;;;;;;5012781;28;20245;-83
2021/01/22 11:27:59;;;;;;;0.10;0.10;;;7.10;99.90;;;;;;5013889;28;20197;-83
2021/01/22 11:30:25;;;;;;;0.10;0.10;;;7.00;99.90;;;;;;5011592;28;20536;-82
2021/01/22 11:32:51;;;;;;;0.10;0.10;;;7.10;99.90;;;;;;5015195;28;20191;-82
2021/01/22 11:35:16;;;;;;;0.20;0.20;;;7.00;99.90;;;;;;5009635;28;20323;-84
2021/01/22 11:37:44;;;;;;;0.10;0.10;;;6.90;99.90;;;;;;5012906;28;20183;-84
2021/01/22 11:40:10;;;;;;;0.30;0.30;;;6.90;99.90;;;;;;5012580;28;20219;-83
2021/01/22 11:42:36;;;;;;;0.10;0.10;;;6.90;99.90;;;;;;5009762;28;20686;-86
2021/01/22 11:45:03;;;;;;;2.53;0.17;;;6.90;99.90;;;;;;5002328;28;20255;-83
2021/01/22 11:47:28;;;;;;;0.00;0.00;;;6.90;99.90;;;;;;5013309;28;20674;-84
2021/01/22 11:49:54;;;;;;;0.10;0.10;;;6.90;99.90;;;;;;5014115;28;20203;-85
2021/01/22 11:52:19;;;;;;;0.20;0.20;;;6.90;99.90;;;;;;5013106;28;20189;-85
2021/01/22 11:54:45;;;;;;;0.10;0.10;;;7.00;99.90;;;;;;5014147;28;20202;-84
2021/01/22 11:57:11;;;;;;;0.10;0.10;;;7.00;99.90;;;;;;5000224;28;20550;-84
2021/01/22 11:59:36;;;;;;;0.10;0.10;;;7.00;99.90;;;;;;5006353;28;20261;-86
2021/01/22 12:02:02;;;;;;;0.10;0.10;;;7.10;99.90;;;;;;4996273;28;20187;-83
2021/01/22 12:04:47;;;;;;;0.13;0.10;;;7.20;99.90;;;;;;5005506;28;20187;-83
2021/01/22 12:07:23;;;;;;;0.10;0.10;;;7.20;99.90;;;;;;5013700;28;20241;-84
2021/01/22 12:09:49;;;;;;;0.10;0.10;;;7.10;99.90;;;;;;5015774;28;20638;-83
2021/01/22 12:12:14;;;;;;;0.00;0.00;;;7.10;99.90;;;;;;5008827;28;20208;-85
2021/01/22 12:14:54;;;;;;;0.13;0.13;;;7.10;99.90;;;;;;5011701;28;20209;-83
2021/01/22 12:17:20;;;;;;;0.10;0.10;;;7.10;99.90;;;;;;5014227;28;20179;-84
2021/01/22 12:19:46;;;;;;;0.00;0.00;;;7.20;99.90;;;;;;5014885;28;20250;-83
2021/01/22 12:22:11;;;;;;;0.00;0.00;;;7.30;99.90;;;;;;5009318;28;20234;-85
2021/01/22 12:24:38;;;;;;;0.00;0.00;;;7.40;99.90;;;;;;5014470;28;20211;-86
2021/01/22 12:27:04;;;;;;;0.00;0.00;;;7.60;99.90;;;;;;5014581;28;20191;-83
2021/01/22 12:29:29;;;;;;;0.10;0.10;;;7.70;99.90;;;;;;5015365;28;20207;-82
2021/01/22 12:31:55;;;;;;;0.00;0.00;;;7.80;99.90;;;;;;5015258;28;20195;-84
2021/01/22 12:34:20;;;;;;;0.00;0.00;;;7.80;99.90;;;;;;5012387;28;20194;-84
2021/01/22 12:36:46;;;;;;;0.10;0.10;;;8.00;99.90;;;;;;5013356;28;20214;-85
2021/01/22 12:39:12;;;;;;;0.10;0.10;;;8.00;99.90;;;;;;5013608;28;20207;-84
2021/01/22 12:41:37;;;;;;;0.10;0.10;;;8.10;99.90;;;;;;5014769;28;20199;-85
2021/01/22 12:44:03;;;;;;;0.10;0.10;;;8.20;99.90;;;;;;5014306;28;20707;-86
2021/01/22 12:46:28;;;;;;;0.07;0.07;;;8.30;99.90;;;;;;5009779;28;20678;-85
2021/01/22 12:48:54;;;;;;;0.30;0.30;;;8.20;99.90;;;;;;5005244;28;20249;-84
2021/01/22 12:51:20;;;;;;;0.10;0.10;;;8.30;99.90;;;;;;5014001;28;20199;-86
2021/01/22 12:53:46;;;;;;;0.03;0.03;;;8.30;99.90;;;;;;5014094;28;20175;-84
2021/01/22 12:56:11;;;;;;;0.03;0.03;;;8.20;99.90;;;;;;5016073;28;20576;-84
2021/01/22 12:58:59;;;;;;;0.10;0.10;;;8.20;99.90;;;;;;5013714;28;20620;-85
2021/01/22 13:01:25;;;;;;;0.10;0.10;;;8.20;99.90;;;;;;5000621;28;20184;-85
2021/01/22 13:03:51;;;;;;;0.10;0.10;;;8.10;99.90;;;;;;5013880;28;20576;-84
2021/01/22 13:06:16;;;;;;;0.10;0.10;;;8.20;99.90;;;;;;5001882;28;20265;-84